Terminal Aerodrome Forecast
Issued by NWS

Home | Current Version | Previous Version | Text Only | Print | Product List | Glossary Off
Versions: 1 2 3 4 5 6 7 8 9 10 11 12 13

825
FTUS45 KGGW 201720
TAFSDY
TAF
KSDY 201720Z 2018/2118 33008KT P6SM SCT080
     FM202100 33015KT P6SM FEW200
     FM210600 05007KT P6SM BKN200
     FM211400 09008KT P6SM BKN080=

USA.gov is the U.S. government's official web portal to all federal, state and local government web resources and services.